Station: Mount Hotham  

  Atmospheric Gas Attenuation - ITU Rec 676-11   ----------------- dB/100km -----------------
Date Time Temp RH % AH g/m3 Dew Point Wind Direction Speed kph Gust kph Barometer mB Rainfall Since 9am 24GHz 47GHz 76GHz 122GHz 134GHz 241GHz
08/05 12:30 2.1 99 5.54 2 33 56 1013.1 0 13.5 24.1 32.6 85.2 69.9 237.1
08/05 12:20 1.8 100 5.49 1.8 33 44 1013.1 0 13.4 24.1 32.5 85.0 69.5 235.6
08/05 12:10 1.7 100 5.45 1.7 28 39 1013.1 0 13.3 24.1 32.4 84.6 69.1 234.0
08/05 12:00 1.9 100 5.53 1.9 30 41 1013.1 0 13.5 24.2 32.7 85.3 70.0 237.2
08/05 11:50 1.7 100 5.45 1.7 37 56 1013.1 0 13.3 24.1 32.4 84.6 69.1 234.0
08/05 11:40 1.5 100 5.38 1.5 41 46 1013.1 0 13.2 24.0 32.2 84.1 68.3 231.2
08/05 11:30 1.3 100 5.3 1.3 33 46 1013.1 0 13.0 24.0 32.0 83.4 67.3 227.9
08/05 11:20 1.2 100 5.27 1.2 33 41 1013.1 0 12.9 23.9 31.9 83.2 67.0 226.8
08/05 11:10 1 100 5.2 1 37 46 1013.1 0 12.8 23.9 31.7 82.6 66.2 224.0
08/05 11:00 0.8 100 5.13 0.8 37 48 1013.1 0 12.7 23.8 31.5 82.1 65.4 221.2
08/05 10:50 0.8 100 5.13 0.8 43 46 1013.1 0 12.7 23.8 31.5 82.1 65.4 221.2
08/05 10:40 0.8 100 5.13 0.8 37 41 1013.1 0 12.7 23.8 31.5 82.1 65.4 221.2
08/05 10:30 0.7 100 5.09 0.7 39 56 1013.1 0 12.6 23.8 31.3 81.7 65.0 219.5
08/05 10:20 0.6 100 5.06 0.6 41 50 1013.1 0 12.5 23.7 31.2 81.5 64.7 218.4
08/05 10:10 0.5 100 5.02 0.5 39 44 1013.1 0 12.4 23.7 31.1 81.1 64.2 216.7
08/05 10:00 0.3 100 4.95 0.3 30 44 1013.1 0 12.3 23.6 30.9 80.6 63.4 213.9
08/05 09:50 0.4 100 4.99 0.4 37 44 1013.1 0 12.4 23.7 31.0 80.9 63.9 215.6
08/05 09:40 0.3 100 4.95 0.3 35 48 1013.1 0 12.3 23.6 30.9 80.6 63.4 213.9
08/05 09:30 0.3 100 4.95 0.3 43 67 1013.1 0 12.3 23.6 30.9 80.6 63.4 213.9
08/05 09:20 0.2 100 4.92 0.2 35 46 1013.1 0 12.2 23.6 30.8 80.3 63.1 212.7
08/05 09:10 0.2 100 4.92 0.2 43 52 1013.1 0 12.2 23.6 30.8 80.3 63.1 212.7
08/05 09:00 0.2 100 4.92 0.2 54 69 1013.1 0 12.2 23.6 30.8 80.3 63.1 212.7
08/05 08:50 0.2 100 4.92 0.2 56 67 1013.1 0.2 12.2 23.6 30.8 80.3 63.1 212.7
08/05 08:40 0.2 100 4.92 0.2 46 56 1013.1 0.2 12.2 23.6 30.8 80.3 63.1 212.7
08/05 08:30 0.2 100 4.92 0.2 41 54 1013.1 0.2 12.2 23.6 30.8 80.3 63.1 212.7
08/05 08:20 0.1 100 4.89 0.1 41 48 1013.1 0.2 12.2 23.6 30.7 80.1 62.7 211.6
08/05 08:10 0 100 4.85 0 33 37 1013.1 0.2 12.1 23.6 30.6 79.8 62.3 209.9
08/05 08:00 0 100 4.85 0 41 57 1013.1 0.2 12.1 23.6 30.6 79.8 62.3 209.9
08/05 07:50 0 100 4.85 0 43 56 1013.1 0.2 12.1 23.6 30.6 79.8 62.3 209.9
08/05 07:40 0 100 4.85 0 37 43 1013.1 0.2 12.1 23.6 30.6 79.8 62.3 209.9
08/05 07:30 0 100 4.85 0 35 52 1013.1 0.2 12.1 23.6 30.6 79.8 62.3 209.9
08/05 07:20 0 100 4.85 0 33 39 1013.1 0.2 12.1 23.6 30.6 79.8 62.3 209.9
08/05 07:10 0 100 4.85 0 48 57 1013.1 0.2 12.1 23.6 30.6 79.8 62.3 209.9
08/05 07:00 0 100 4.85 0 43 59 1013.1 0.2 12.1 23.6 30.6 79.8 62.3 209.9
08/05 06:50 0 100 4.85 0 39 44 1013.1 0.2 12.1 23.6 30.6 79.8 62.3 209.9
08/05 06:40 -0.1 100 4.82 -0.1 30 39 1013.1 0.2 12.0 23.5 30.5 79.6 61.9 208.7
08/05 06:30 -0.2 100 4.79 -0.2 28 43 1013.1 0.2 12.0 23.5 30.4 79.3 61.6 207.6
08/05 06:20 -0.3 100 4.75 -0.3 28 32 1013.1 0.2 11.9 23.5 30.3 79.0 61.1 205.9
08/05 06:10 -0.4 100 4.72 -0.4 35 44 1013.1 0.2 11.8 23.4 30.2 78.7 60.8 204.7
08/05 06:00 -0.5 100 4.69 -0.5 26 46 1013.1 0.2 11.7 23.4 30.1 78.5 60.5 203.6
08/05 05:50 -1 100 4.53 -1 24 30 1013.1 0.2 11.4 23.3 29.7 77.2 58.7 197.2
08/05 05:40 -1.1 100 4.5 -1.1 24 35 1013.1 0.2 11.4 23.3 29.6 77.0 58.3 196.0
08/05 05:30 -1.1 100 4.5 -1.1 26 33 1013.1 0.2 11.4 23.3 29.6 77.0 58.3 196.0
08/05 05:20 -1.3 100 4.43 -1.3 30 33 1013.1 0.2 11.2 23.2 29.4 76.4 57.5 193.1
08/05 05:10 -1 100 4.53 -1 33 41 1013.1 0.2 11.4 23.3 29.7 77.2 58.7 197.2
08/05 05:00 -1.1 100 4.5 -1.1 33 50 1013.1 0.2 11.4 23.3 29.6 77.0 58.3 196.0
08/05 04:50 -1.1 100 4.5 -1.1 30 35 1013.1 0.2 11.4 23.3 29.6 77.0 58.3 196.0
08/05 04:40 -0.8 100 4.59 -0.8 33 44 1013.1 0.2 11.5 23.3 29.8 77.7 59.3 199.5
08/05 04:30 -0.8 100 4.59 -0.8 35 54 1013.1 0.2 11.5 23.3 29.8 77.7 59.3 199.5
08/05 04:20 -0.9 100 4.56 -0.9 30 39 1013.1 0.2 11.5 23.3 29.7 77.5 59.0 198.3
08/05 04:10 -0.8 100 4.59 -0.8 30 35 1013.1 0.2 11.5 23.3 29.8 77.7 59.3 199.5
08/05 04:00 -0.6 100 4.65 -0.6 32 46 1013.1 0.2 11.7 23.4 30.0 78.2 60.0 201.9
08/05 03:50 -0.8 100 4.59 -0.8 32 41 1013.1 0.2 11.5 23.3 29.8 77.7 59.3 199.5
08/05 03:40 -1.3 100 4.43 -1.3 24 32 1013.1 0.2 11.2 23.2 29.4 76.4 57.5 193.1
08/05 03:30 -1.3 100 4.43 -1.3 26 37 1013.1 0.2 11.2 23.2 29.4 76.4 57.5 193.1
08/05 03:20 -0.6 100 4.65 -0.6 32 37 1013.1 0.2 11.7 23.4 30.0 78.2 60.0 201.9
08/05 03:10 -1.1 100 4.5 -1.1 28 33 1013.1 0.2 11.4 23.3 29.6 77.0 58.3 196.0
08/05 03:00 -1.6 100 4.34 -1.6 24 35 1013.1 0.2 11.0 23.1 29.1 75.7 56.5 189.5
08/05 02:50 -1.4 100 4.4 -1.4 32 37 1013.1 0.2 11.1 23.2 29.3 76.2 57.2 191.9
08/05 02:40 -1.4 100 4.4 -1.4 26 35 1013.1 0.2 11.1 23.2 29.3 76.2 57.2 191.9
08/05 02:30 -1.6 100 4.34 -1.6 22 30 1013.1 0.2 11.0 23.1 29.1 75.7 56.5 189.5
08/05 02:20 -1.1 100 4.5 -1.1 28 32 1013.1 0.2 11.4 23.3 29.6 77.0 58.3 196.0
08/05 02:10 -1.3 100 4.43 -1.3 24 30 1013.1 0.2 11.2 23.2 29.4 76.4 57.5 193.1
08/05 02:00 -1.6 100 4.34 -1.6 20 33 1013.1 0.2 11.0 23.1 29.1 75.7 56.5 189.5
08/05 01:50 -1.6 100 4.34 -1.6 19 24 1013.1 0.2 11.0 23.1 29.1 75.7 56.5 189.5
08/05 01:40 -1.6 100 4.34 -1.6 20 30 1013.1 0.2 11.0 23.1 29.1 75.7 56.5 189.5
08/05 01:30 -1.4 100 4.4 -1.4 22 33 1013.1 0.2 11.1 23.2 29.3 76.2 57.2 191.9
08/05 01:20 -1 100 4.53 -1 26 33 1013.1 0.2 11.4 23.3 29.7 77.2 58.7 197.2
08/05 01:10 -1.4 100 4.4 -1.4 26 30 1013.1 0.2 11.1 23.2 29.3 76.2 57.2 191.9
08/05 01:00 -1.1 100 4.5 -1.1 30 44 1013.1 0.2 11.4 23.3 29.6 77.0 58.3 196.0
08/05 00:50 -1.1 100 4.5 -1.1 28 33 1013.1 0.2 11.4 23.3 29.6 77.0 58.3 196.0
08/05 00:40 -1.2 100 4.46 -1.2 33 41 1013.1 0.2 11.3 23.2 29.4 76.7 57.9 194.3
08/05 00:30 -1 100 4.53 -1 39 50 1013.1 0.2 11.4 23.3 29.7 77.2 58.7 197.2
08/05 00:20 -1.2 100 4.46 -1.2 43 46 1013.1 0.2 11.3 23.2 29.4 76.7 57.9 194.3
08/05 00:10 -1.5 100 4.37 -1.5 39 50 1013.1 0.2 11.1 23.1 29.2 76.0 56.9 190.7
08/05 00:00 -1.7 100 4.31 -1.7 35 50 1013.1 0.2 11.0 23.1 29.0 75.5 56.2 188.3
07/05 23:50 -2 99 4.18 -2.1 32 37 1013.1 0.2 10.7 23.0 28.6 74.4 54.6 182.8
07/05 23:40 -1.8 100 4.28 -1.8 37 43 1013.1 0.2 10.9 23.1 28.9 75.3 55.9 187.1
07/05 23:30 -2.3 99 4.09 -2.4 24 35 1013.1 0.2 10.5 22.9 28.3 73.7 53.6 179.2
07/05 23:20 -2.5 99 4.04 -2.6 20 24 1013.1 0.2 10.4 22.9 28.2 73.3 53.1 177.3
07/05 23:10 -2.7 99 3.98 -2.8 20 22 1013.1 0.2 10.3 22.8 28.0 72.8 52.4 174.8
07/05 23:00 -2.7 99 3.98 -2.8 20 28 1013.1 0 10.3 22.8 28.0 72.8 52.4 174.8
07/05 22:50 -2.8 98 3.91 -3.1 20 22 1013.1 0 10.1 22.7 27.8 72.1 51.5 171.7
07/05 22:40 -2.8 98 3.91 -3.1 26 33 1013.1 0 10.1 22.7 27.8 72.1 51.5 171.7
07/05 22:30 -2.7 99 3.98 -2.8 26 39 1013.1 0 10.3 22.8 28.0 72.8 52.4 174.8
07/05 22:20 -2.8 99 3.95 -2.9 28 33 1013.1 0 10.2 22.8 27.9 72.6 52.1 173.6
07/05 22:10 -2.9 98 3.88 -3.2 30 35 1013.1 0 10.1 22.7 27.7 71.9 51.2 170.5
07/05 22:00 -3 98 3.86 -3.3 30 46 1013.1 0 10.0 22.7 27.6 71.8 51.0 169.7
07/05 21:50 -3 98 3.86 -3.3 35 41 1013.1 0 10.0 22.7 27.6 71.8 51.0 169.7
07/05 21:40 -3.1 98 3.83 -3.4 32 35 1013.1 0 10.0 22.7 27.5 71.5 50.6 168.5
07/05 21:30 -3.3 98 3.77 -3.6 32 39 1013.1 0 9.8 22.6 27.4 71.1 49.9 166.1
07/05 21:20 -3.4 98 3.75 -3.7 30 35 1013.1 0 9.8 22.6 27.3 70.9 49.7 165.3
07/05 21:10 -3.4 98 3.75 -3.7 26 32 1013.1 0 9.8 22.6 27.3 70.9 49.7 165.3
07/05 21:00 -3.4 98 3.75 -3.7 28 39 1013.1 0 9.8 22.6 27.3 70.9 49.7 165.3
07/05 20:50 -3.3 98 3.77 -3.6 30 37 1013.1 0 9.8 22.6 27.4 71.1 49.9 166.1
07/05 20:40 -3.4 98 3.75 -3.7 24 30 1013.1 0 9.8 22.6 27.3 70.9 49.7 165.3
07/05 20:30 -3.5 98 3.72 -3.8 19 33 1013.1 0 9.7 22.6 27.2 70.7 49.4 164.1
07/05 20:20 -3.5 98 3.72 -3.8 15 19 1013.1 0 9.7 22.6 27.2 70.7 49.4 164.1
07/05 20:10 -3.6 98 3.7 -3.9 13 17 1013.1 0 9.7 22.6 27.2 70.6 49.2 163.4
07/05 20:00 -3.6 98 3.7 -3.9 17 32 1013.1 0 9.7 22.6 27.2 70.6 49.2 163.4

Last Refresh: 08-May-2026 12:07:30

Bureau of Meteorology